Latest Weather Observations for Bourke

IDN60801

Issued at 10:02 pm EST Saturday 25 April 2015 (issued every 30 minutes, with the page automatically refreshed every 10 minutes)

About weather observations | Map of weather stations | Latest weather observations for NSW | Other Formats
Station Details ID: 048245 Name: BOURKE AIRPORT AWS Lat: -30.04 Lon: 145.95 Height: 107.3 m
Data from the previous 72 hours. | See also: Recent months at Bourke
Date/Time
EST
Temp
°C
App
Temp
°C
Dew
Point
Rel
Hum
%
Delta-T
°C
Wind Press
QNH
hPa
Press
MSL
hPa
Rain
since 9 am
mm
Dir
 
Spd
km/h
Gust
km/h
Spd
kts
Gust
kts
25/10:00pm 13.0 7.9 5.9 62 3.4 WSW 22 32 12 17 1014.7 1014.4 0.0
25/09:30pm 13.5 8.2 5.2 57 3.9 WSW 22 32 12 17 1014.4 1014.1 0.0
25/09:00pm 13.9 8.9 4.5 53 4.4 WSW 20 30 11 16 1014.1 1013.8 0.0
25/08:30pm 14.3 9.2 4.3 51 4.6 WSW 20 37 11 20 1013.5 1013.1 0.0
25/08:00pm 15.2 8.7 4.6 49 5.0 SW 28 41 15 22 1013.1 1012.7 0.0
25/07:30pm 15.6 9.5 6.6 55 4.4 SW 28 41 15 22 1012.5 1012.1 0.0
25/07:01pm 15.6 9.6 7.1 57 4.2 W 28 46 15 25 1011.7 1011.3 0.0
25/07:00pm 15.6 9.3 7.4 58 4.1 W 30 46 16 25 1011.7 1011.3 0.0
25/06:55pm 16.2 10.0 6.3 52 4.8 W 28 46 15 25 1011.6 1011.2 0.0
25/06:30pm 18.7 12.2 2.5 34 7.5 WNW 26 39 14 21 1010.8 1010.4 0.0
25/06:00pm 18.9 12.0 2.3 33 7.7 WNW 28 41 15 22 1010.3 1009.9 0.0
25/05:30pm 19.3 12.8 2.6 33 7.8 WNW 26 43 14 23 1010.0 1009.6 0.0
25/05:00pm 19.8 12.5 2.2 31 8.2 WNW 30 44 16 24 1009.7 1009.3 0.0
25/04:30pm 20.2 13.3 2.5 31 8.3 WNW 28 46 15 25 1009.4 1009.1 0.0
25/04:25pm 20.3 13.3 2.2 30 8.4 WNW 28 46 15 25 1009.3 1009.0 0.0
25/04:00pm 21.2 13.5 2.5 29 8.8 WNW 32 43 17 23 1009.2 1008.9 0.0
25/03:34pm 20.8 13.0 1.6 28 8.9 W 32 50 17 27 1009.2 1008.9 0.0
25/03:30pm 21.0 13.9 1.3 27 9.0 WNW 28 43 15 23 1009.2 1008.9 0.0
25/03:03pm 21.7 14.6 1.4 26 9.4 WNW 28 46 15 25 1009.1 1008.8 0.0
25/03:00pm 21.9 14.4 1.5 26 9.5 WNW 30 46 16 25 1009.1 1008.8 0.0
25/02:30pm 21.8 15.1 1.5 26 9.4 WNW 26 43 14 23 1009.1 1008.8 0.0
25/02:00pm 21.4 14.6 1.1 26 9.3 W 26 41 14 22 1009.2 1008.9 0.0
25/01:44pm 21.7 14.5 0.8 25 9.6 WNW 28 46 15 25 1009.2 1008.9 0.0
25/01:30pm 21.9 15.9 1.0 25 9.6 WNW 22 39 12 21 1009.2 1008.9 0.0
25/01:00pm 20.9 14.2 1.2 27 9.0 WNW 26 37 14 20 1009.7 1009.3 0.0
25/12:30pm 21.3 15.2 2.6 29 8.8 WNW 24 43 13 23 1010.0 1009.6 0.0
25/12:00pm 20.7 14.8 3.9 33 8.1 NW 24 39 13 21 1010.2 1009.8 0.0
25/11:30am 20.5 14.0 4.5 35 7.8 NW 28 39 15 21 1010.7 1010.3 0.0
25/11:00am 19.6 14.2 6.3 42 6.7 WNW 24 33 13 18 1011.0 1010.6 0.0
25/10:30am 19.6 14.7 5.3 39 7.0 WNW 20 30 11 16 1010.9 1010.5 0.0
25/10:00am 19.1 14.3 4.8 39 6.9 W 19 30 10 16 1011.2 1010.8 0.0
25/09:30am 18.2 14.7 5.4 43 6.2 W 13 17 7 9 1011.4 1011.0 0.0
25/09:00am 17.4 13.7 6.3 48 5.5 WSW 15 24 8 13 1011.5 1011.1 0.0
25/08:30am 16.4 12.9 7.1 54 4.6 WSW 15 22 8 12 1011.4 1011.0 0.0
25/08:00am 15.2 11.8 7.5 60 3.8 WSW 15 24 8 13 1011.1 1010.7 0.0
25/07:30am 14.3 11.7 7.8 65 3.2 WSW 11 17 6 9 1010.7 1010.3 0.0
25/07:00am 13.5 10.5 7.5 67 3.0 WSW 13 20 7 11 1010.4 1010.0 0.0
25/06:30am 13.5 10.0 7.1 65 3.1 WSW 15 24 8 13 1010.0 1009.6 0.0
25/06:00am 14.0 10.4 6.8 62 3.5 WSW 15 22 8 12 1009.7 1009.3 0.0
25/05:30am 14.0 10.2 5.9 58 3.9 W 15 24 8 13 1009.4 1009.1 0.0
25/05:00am 12.9 10.0 4.6 57 3.8 WNW 9 11 5 6 1008.9 1008.6 0.0
25/04:30am 14.1 11.2 4.9 54 4.3 WNW 9 13 5 7 1008.7 1008.4 0.0
25/04:00am 14.4 11.1 4.7 52 4.5 WNW 11 15 6 8 1008.7 1008.4 0.0
25/03:30am 15.0 11.0 4.7 50 4.8 WNW 15 20 8 11 1008.8 1008.5 0.0
25/03:00am 15.1 11.4 4.2 48 5.1 NW 13 17 7 9 1008.8 1008.5 0.0
25/02:30am 15.4 11.7 4.2 47 5.2 NW 13 17 7 9 1008.7 1008.4 0.0
25/02:00am 15.5 11.8 4.5 48 5.2 NW 13 15 7 8 1008.8 1008.5 0.0
25/01:30am 14.1 11.1 4.1 51 4.6 NNW 9 11 5 6 1009.1 1008.8 0.0
25/01:00am 14.2 11.2 4.2 51 4.6 NNW 9 11 5 6 1009.2 1008.9 0.0
25/12:30am 14.9 11.9 4.0 48 5.0 NNW 9 11 5 6 1009.4 1009.1 0.0
25/12:00am 15.2 11.9 4.3 48 5.1 NNW 11 13 6 7 1009.8 1009.4 0.0
 
Date/Time
EST
Temp
°C
App
Temp
°C
Dew
Point
Rel
Hum
%
Delta-T
°C
Wind Press
QNH
hPa
Press
MSL
hPa
Rain
since 9 am
mm
Dir
 
Spd
km/h
Gust
km/h
Spd
kts
Gust
kts
24/11:30pm 15.0 12.1 4.7 50 4.8 NNW 9 11 5 6 1009.8 1009.4 0.0
24/11:00pm 14.5 11.5 4.2 50 4.8 NNW 9 11 5 6 1009.9 1009.5 0.0
24/10:30pm 14.1 11.2 2.7 46 5.1 NW 7 9 4 5 1010.0 1009.6 0.0
24/10:00pm 14.6 11.9 2.8 45 5.3 NW 6 7 3 4 1010.0 1009.6 0.0
24/09:30pm 15.3 12.5 3.1 44 5.6 WNW 7 9 4 5 1010.1 1009.7 0.0
24/09:00pm 16.7 14.0 2.7 39 6.4 WNW 6 7 3 4 1010.0 1009.6 0.0
24/08:30pm 19.4 16.8 4.0 36 7.4 WNW 7 9 4 5 1009.8 1009.4 0.0
24/08:00pm 20.8 17.8 4.0 33 8.1 W 9 13 5 7 1009.8 1009.4 0.0
24/07:30pm 21.3 18.3 4.0 32 8.4 W 9 13 5 7 1009.6 1009.2 0.0
24/07:00pm 21.8 18.8 3.9 31 8.7 W 9 11 5 6 1009.1 1008.8 0.0
24/06:30pm 22.2 19.6 3.3 29 9.1 W 6 9 3 5 1008.8 1008.5 0.0
24/06:00pm 23.6 20.9 3.5 27 9.8 W 7 11 4 6 1008.4 1008.1 0.0
24/05:30pm 24.3 20.4 3.6 26 10.2 WNW 13 20 7 11 1008.2 1007.9 0.0
24/05:00pm 25.0 20.4 3.6 25 10.6 WNW 17 24 9 13 1008.0 1007.7 0.0
24/04:30pm 25.7 21.6 4.2 25 10.8 WNW 15 22 8 12 1007.9 1007.6 0.0
24/04:00pm 25.9 20.9 3.8 24 11.1 W 19 28 10 15 1008.1 1007.8 0.0
24/03:30pm 25.7 20.8 4.2 25 10.8 WSW 19 28 10 15 1008.1 1007.8 0.0
24/03:00pm 25.9 21.7 5.5 27 10.5 WNW 17 28 9 15 1008.2 1007.9 0.0
24/02:30pm 25.3 21.1 5.5 28 10.1 WNW 17 28 9 15 1008.7 1008.4 0.0
24/02:00pm 25.3 21.4 7.0 31 9.7 W 17 30 9 16 1008.9 1008.6 0.0
24/01:30pm 25.1 21.1 6.8 31 9.6 WNW 17 30 9 16 1009.1 1008.8 0.0
24/01:00pm 24.9 21.6 6.6 31 9.6 NW 13 24 7 13 1009.6 1009.2 0.0
24/12:30pm 24.4 20.8 6.6 32 9.3 W 15 24 8 13 1010.2 1009.8 0.0
24/12:00pm 23.2 18.8 6.5 34 8.6 WNW 19 28 10 15 1010.8 1010.4 0.0
24/11:30am 23.5 19.8 6.3 33 8.8 WNW 15 26 8 14 1011.2 1010.8 0.0
24/11:00am 22.8 20.0 7.0 36 8.2 WNW 11 20 6 11 1011.5 1011.1 0.0
24/10:30am 21.9 18.8 7.3 39 7.6 WNW 13 20 7 11 1011.8 1011.4 0.0
24/10:00am 21.2 19.0 7.8 42 7.0 NW 9 15 5 8 1011.9 1011.5 0.0
24/09:30am 19.5 17.6 7.6 46 6.1 W 7 11 4 6 1011.9 1011.5 0.0
24/09:00am 18.4 16.0 7.2 48 5.7 W 9 13 5 7 1011.9 1011.5 0.0
24/08:30am 16.6 14.1 6.4 51 5.0 WNW 9 13 5 7 1012.0 1011.6 0.0
24/08:00am 16.2 14.0 6.3 52 4.9 WNW 7 11 4 6 1011.4 1011.0 0.0
24/07:30am 15.0 12.9 6.6 57 4.1 NW 7 9 4 5 1011.1 1010.7 0.0
24/07:00am 13.0 10.7 5.9 62 3.4 NW 7 9 4 5 1011.0 1010.6 0.0
24/06:30am 12.0 9.7 5.9 66 2.9 NW 7 9 4 5 1010.8 1010.4 0.0
24/06:00am 10.9 8.4 4.8 66 2.8 WNW 7 9 4 5 1010.8 1010.4 0.0
24/05:30am 10.8 8.3 4.5 65 2.8 WNW 7 9 4 5 1010.6 1010.2 0.0
24/05:00am 10.9 8.5 4.4 64 2.9 WNW 6 7 3 4 1010.4 1010.0 0.0
24/04:30am 11.2 8.8 4.2 62 3.2 NW 6 7 3 4 1010.4 1010.0 0.0
24/04:00am 11.5 8.9 4.3 61 3.3 W 7 9 4 5 1010.4 1010.0 0.0
24/03:30am 13.0 10.8 5.2 59 3.6 W 6 7 3 4 1010.5 1010.1 0.0
24/03:00am 13.8 11.6 5.4 57 4.0 W 6 7 3 4 1010.6 1010.2 0.0
24/02:30am 14.3 12.0 5.7 56 4.1 WNW 7 9 4 5 1010.8 1010.4 0.0
24/02:00am 13.9 11.5 4.5 53 4.4 WSW 6 6 3 3 1010.9 1010.5 0.0
24/01:30am 14.3 11.8 4.9 53 4.4 W 7 7 4 4 1011.1 1010.7 0.0
24/01:00am 15.5 13.2 4.8 49 5.1 WNW 6 6 3 3 1011.6 1011.2 0.0
24/12:30am 16.5 14.2 5.5 48 5.3 WNW 7 9 4 5 1011.7 1011.3 0.0
24/12:00am 17.0 14.6 5.3 46 5.7 WNW 7 9 4 5 1012.0 1011.6 0.0
 
Date/Time
EST
Temp
°C
App
Temp
°C
Dew
Point
Rel
Hum
%
Delta-T
°C
Wind Press
QNH
hPa
Press
MSL
hPa
Rain
since 9 am
mm
Dir
 
Spd
km/h
Gust
km/h
Spd
kts
Gust
kts
23/11:30pm 17.3 14.8 4.9 44 5.9 WNW 7 9 4 5 1012.0 1011.6 0.0
23/11:00pm 18.6 15.9 5.5 42 6.4 W 9 11 5 6 1012.1 1011.7 0.0
23/10:30pm 19.0 15.9 5.5 41 6.6 W 11 17 6 9 1012.5 1012.1 0.0
23/10:00pm 19.2 16.0 5.3 40 6.8 W 11 15 6 8 1012.5 1012.1 0.0
23/09:30pm 19.7 16.5 5.0 38 7.2 W 11 17 6 9 1012.5 1012.1 0.0
23/09:00pm 19.8 15.8 4.7 37 7.4 W 15 20 8 11 1012.7 1012.3 0.0
23/08:30pm 20.1 16.4 4.6 36 7.5 W 13 17 7 9 1012.6 1012.2 0.0
23/08:00pm 20.6 17.2 3.8 33 8.1 W 11 15 6 8 1012.5 1012.1 0.0
23/07:30pm 21.3 17.5 4.0 32 8.4 WSW 13 17 7 9 1012.3 1011.9 0.0
23/07:00pm 21.4 17.7 4.5 33 8.3 WSW 13 17 7 9 1012.1 1011.7 0.0
23/06:30pm 21.9 18.2 4.5 32 8.6 WSW 13 17 7 9 1011.8 1011.4 0.0
23/06:00pm 22.7 19.0 4.2 30 9.1 WSW 13 19 7 10 1011.7 1011.3 0.0
23/05:30pm 23.3 19.3 4.8 30 9.2 WSW 15 22 8 12 1011.5 1011.1 0.0
23/05:00pm 23.9 19.9 4.8 29 9.6 WSW 15 22 8 12 1011.3 1010.9 0.0
23/04:30pm 24.2 20.2 5.1 29 9.6 WSW 15 20 8 11 1011.2 1010.8 0.0
23/04:00pm 24.7 20.7 5.0 28 10.0 WSW 15 24 8 13 1011.1 1010.7 0.0
23/03:30pm 24.8 20.6 5.6 29 9.8 WSW 17 24 9 13 1011.1 1010.7 0.0
23/03:00pm 25.3 21.2 6.0 29 10.0 SW 17 24 9 13 1011.4 1011.0 0.0
23/02:30pm 24.9 20.7 5.7 29 9.9 W 17 24 9 13 1011.7 1011.3 0.0
23/02:00pm 24.9 21.3 6.6 31 9.5 WSW 15 24 8 13 1011.9 1011.5 0.0
23/01:30pm 24.6 20.5 6.4 31 9.4 WSW 17 22 9 12 1012.1 1011.7 0.0
23/01:00pm 23.8 20.4 5.7 31 9.2 W 13 20 7 11 1012.6 1012.2 0.0
23/12:30pm 23.6 20.2 6.0 32 9.0 WSW 13 22 7 12 1013.2 1012.8 0.0
23/12:00pm 23.1 20.1 6.0 33 8.7 SW 11 20 6 11 1014.0 1013.7 0.0
23/11:30am 22.7 19.8 6.5 35 8.3 SW 11 20 6 11 1014.7 1014.4 0.0
23/11:00am 22.2 19.1 5.6 34 8.4 SSW 11 15 6 8 1014.8 1014.5 0.0
23/10:30am 21.2 19.0 7.8 42 7.0 SW 9 15 5 8 1015.1 1014.8 0.0
23/10:00am 20.0 17.8 7.7 45 6.3 WSW 9 15 5 8 1015.4 1015.1 0.0
23/09:30am 18.6 15.8 7.1 47 5.8 SW 11 17 6 9 1015.6 1015.3 0.0
23/09:00am 16.8 13.9 6.6 51 5.0 SW 11 15 6 8 1015.9 1015.6 0.0
23/08:30am 15.4 12.5 6.4 55 4.4 WSW 11 17 6 9 1016.3 1016.0 0.0
23/08:00am 13.4 10.7 5.8 60 3.6 SW 9 11 5 6 1016.1 1015.8 0.0
23/07:30am 12.0 9.3 5.6 65 3.0 WSW 9 13 5 7 1015.9 1015.6 0.0
23/07:00am 10.6 8.2 5.2 69 2.5 WSW 7 9 4 5 1015.9 1015.6 0.0
23/06:30am 10.6 7.7 4.9 68 2.6 WSW 9 13 5 7 1015.5 1015.2 0.0
23/06:00am 10.8 7.9 4.9 67 2.7 WSW 9 13 5 7 1015.5 1015.2 0.0
23/05:30am 10.0 7.2 5.0 71 2.3 W 9 15 5 8 1015.2 1014.9 0.0
23/05:00am 9.2 6.5 3.8 69 2.4 WSW 7 9 4 5 1015.2 1014.9 0.0
23/04:30am 9.6 6.5 3.8 67 2.6 SW 9 11 5 6 1015.0 1014.7 0.0
23/04:00am 10.7 8.1 4.4 65 2.8 WSW 7 11 4 6 1015.0 1014.7 0.0
23/03:30am 10.8 7.9 4.5 65 2.8 WSW 9 9 5 5 1014.9 1014.6 0.0
23/03:00am 10.8 8.2 4.0 63 3.0 W 7 7 4 4 1015.0 1014.7 0.0
23/02:30am 11.6 9.0 4.3 61 3.3 WSW 7 9 4 5 1015.3 1015.0 0.0
23/02:00am 11.2 8.6 4.4 63 3.1 SW 7 9 4 5 1015.3 1015.0 0.0
23/01:30am 11.3 8.2 3.8 60 3.3 SW 9 9 5 5 1015.6 1015.3 0.0
23/01:00am 12.0 9.4 4.0 58 3.6 WSW 7 9 4 5 1015.7 1015.4 0.0
23/12:30am 13.3 10.3 4.2 54 4.2 WSW 9 11 5 6 1016.3 1016.0 0.0
23/12:00am 14.1 11.2 4.7 53 4.4 WSW 9 11 5 6 1016.4 1016.1 0.0
 
Date/Time
EST
Temp
°C
App
Temp
°C
Dew
Point
Rel
Hum
%
Delta-T
°C
Wind Press
QNH
hPa
Press
MSL
hPa
Rain
since 9 am
mm
Dir
 
Spd
km/h
Gust
km/h
Spd
kts
Gust
kts
22/11:30pm 13.9 10.9 4.2 52 4.5 SW 9 11 5 6 1016.4 1016.1 0.0
22/11:00pm 13.2 10.2 4.1 54 4.2 SSW 9 11 5 6 1016.5 1016.2 0.0
22/10:30pm 14.5 11.6 4.8 52 4.5 WSW 9 11 5 6 1016.9 1016.6 0.0

Other Formats:

Comma delimited format used in spreadsheet applications
http://www.bom.gov.au/fwo/IDN60801/IDN60801.94703.axf

JavaScript Object Notation format (JSON) in row-major order
http://www.bom.gov.au/fwo/IDN60801/IDN60801.94703.json